createdAt,value
2022-08-09T00:01:52.772Z,20.88
2022-08-09T00:05:02.934Z,20.78
2022-08-09T00:08:32.443Z,20.76
2022-08-09T00:12:01.542Z,20.85
2022-08-09T00:15:06.788Z,20.83
2022-08-09T00:18:11.905Z,20.73
2022-08-09T00:21:14.785Z,20.85
2022-08-09T00:24:19.820Z,20.75
2022-08-09T00:27:22.214Z,20.78
2022-08-09T00:30:27.071Z,20.89
2022-08-09T00:33:32.468Z,20.93
2022-08-09T00:36:52.030Z,20.86
2022-08-09T00:40:14.129Z,20.97
2022-08-09T00:44:13.998Z,20.97
2022-08-09T00:46:57.857Z,20.95
2022-08-09T00:50:04.941Z,20.84
2022-08-09T00:53:10.563Z,20.82
2022-08-09T00:56:16.387Z,20.94
2022-08-09T00:59:31.668Z,20.94
2022-08-09T01:03:12.741Z,20.91
2022-08-09T01:06:20.927Z,20.91
2022-08-09T01:09:36.704Z,20.91
2022-08-09T01:12:52.870Z,20.90
2022-08-09T01:15:57.466Z,20.80
2022-08-09T01:19:17.089Z,20.90
2022-08-09T01:22:52.034Z,20.76
2022-08-09T01:26:18.404Z,20.84
2022-08-09T01:29:29.471Z,20.71
2022-08-09T01:32:54.281Z,20.64
2022-08-09T01:36:13.629Z,20.82
2022-08-09T01:39:17.355Z,20.82
2022-08-09T01:42:21.019Z,20.79
2022-08-09T01:45:24.512Z,20.70
2022-08-09T01:48:31.373Z,20.75
2022-08-09T01:51:36.011Z,20.75
2022-08-09T01:54:50.669Z,20.73
2022-08-09T01:57:55.781Z,20.58
2022-08-09T02:01:01.154Z,20.56
2022-08-09T02:04:05.119Z,20.59
2022-08-09T02:08:36.109Z,20.69
2022-08-09T02:10:50.698Z,20.68
2022-08-09T02:13:55.224Z,20.68
2022-08-09T02:17:15.200Z,20.56
2022-08-09T02:20:38.555Z,20.54
2022-08-09T02:23:49.469Z,20.68
2022-08-09T02:27:00.222Z,20.67
2022-08-09T02:30:05.508Z,20.66
2022-08-09T02:33:14.406Z,20.55
2022-08-09T02:36:28.322Z,20.48
2022-08-09T02:39:41.801Z,20.55
2022-08-09T02:42:50.962Z,20.56
2022-08-09T02:45:55.481Z,20.41
2022-08-09T02:49:03.066Z,20.48
2022-08-09T02:52:09.555Z,20.40
2022-08-09T02:55:20.155Z,20.35
2022-08-09T02:58:35.807Z,20.48
2022-08-09T03:01:43.250Z,20.41
2022-08-09T03:05:05.850Z,20.43
2022-08-09T03:08:10.902Z,20.29
2022-08-09T03:12:06.436Z,20.38
2022-08-09T03:14:44.042Z,20.36
2022-08-09T03:17:57.818Z,20.35
2022-08-09T03:21:03.002Z,20.33
2022-08-09T03:24:05.337Z,20.17
2022-08-09T03:27:10.753Z,20.26
2022-08-09T03:30:34.326Z,20.23
2022-08-09T03:33:54.046Z,20.08
2022-08-09T03:36:59.792Z,20.16
2022-08-09T03:40:05.804Z,20.09
2022-08-09T03:43:09.475Z,20.09
2022-08-09T03:46:20.145Z,19.95
2022-08-09T03:49:32.836Z,19.93
2022-08-09T03:52:42.582Z,20.04
2022-08-09T03:55:49.429Z,20.01
2022-08-09T03:58:51.838Z,20.00
2022-08-09T04:01:59.324Z,20.01
2022-08-09T04:05:06.512Z,19.84
2022-08-09T04:08:09.230Z,19.93
2022-08-09T04:11:12.294Z,19.83
2022-08-09T04:14:52.782Z,19.86
2022-08-09T04:17:45.113Z,19.99
2022-08-09T04:20:51.236Z,20.00
2022-08-09T04:23:57.774Z,20.01
2022-08-09T04:27:00.215Z,19.92
2022-08-09T04:30:02.961Z,20.07
2022-08-09T04:33:05.259Z,20.11
2022-08-09T04:36:10.390Z,20.07
2022-08-09T04:39:13.480Z,20.24
2022-08-09T04:42:16.443Z,20.30
2022-08-09T04:45:20.930Z,20.33
2022-08-09T04:48:33.429Z,20.40
2022-08-09T04:51:36.299Z,20.33
2022-08-09T04:54:39.553Z,20.40
2022-08-09T04:57:58.401Z,20.59
2022-08-09T05:01:04.528Z,20.62
2022-08-09T05:04:18.895Z,20.57
2022-08-09T05:07:22.332Z,20.62
2022-08-09T05:10:25.845Z,20.74
2022-08-09T05:13:28.648Z,20.66
2022-08-09T05:16:32.008Z,20.68
2022-08-09T05:19:45.867Z,20.80
2022-08-09T05:23:55.261Z,20.82
2022-08-09T05:26:16.136Z,20.84
2022-08-09T05:29:35.756Z,20.78
2022-08-09T05:32:39.847Z,20.93
2022-08-09T05:35:46.642Z,20.98
2022-08-09T05:38:52.575Z,21.00
2022-08-09T05:41:54.860Z,21.10
2022-08-09T05:44:58.816Z,21.18
2022-08-09T05:48:02.308Z,21.28
2022-08-09T05:51:29.748Z,21.37
2022-08-09T05:54:28.912Z,21.43
2022-08-09T05:57:50.985Z,21.54
2022-08-09T06:00:53.971Z,21.74
2022-08-09T06:03:58.746Z,21.80
2022-08-09T06:07:01.158Z,22.00
2022-08-09T06:10:04.822Z,22.12
2022-08-09T06:13:18.373Z,22.14
2022-08-09T06:16:23.341Z,22.25
2022-08-09T06:19:27.614Z,22.45
2022-08-09T06:22:30.396Z,22.55
2022-08-09T06:25:32.854Z,22.57
2022-08-09T06:28:37.223Z,22.76
2022-08-09T06:32:08.365Z,22.76
2022-08-09T06:35:02.103Z,22.97
2022-08-09T06:38:08.853Z,23.19
2022-08-09T06:41:19.219Z,23.31
2022-08-09T06:44:23.021Z,23.29
2022-08-09T06:47:30.242Z,23.46
2022-08-09T06:50:42.014Z,23.54
2022-08-09T06:53:44.556Z,23.88
2022-08-09T06:56:46.820Z,24.03
2022-08-09T07:00:49.914Z,24.24
2022-08-09T07:03:11.787Z,24.48
2022-08-09T07:06:14.265Z,24.65
2022-08-09T07:09:55.954Z,24.93
2022-08-09T07:12:41.377Z,25.01
2022-08-09T07:16:35.324Z,25.31
2022-08-09T07:19:07.920Z,25.23
2022-08-09T07:22:10.908Z,25.52
2022-08-09T07:25:15.537Z,25.78
2022-08-09T07:28:19.206Z,25.85
2022-08-09T07:31:28.825Z,26.25
2022-08-09T07:34:40.316Z,26.26
2022-08-09T07:37:46.156Z,26.48
2022-08-09T07:41:09.928Z,26.61
2022-08-09T07:44:13.949Z,26.88
2022-08-09T07:47:16.421Z,27.25
2022-08-09T07:50:33.010Z,27.42
2022-08-09T07:54:05.618Z,27.70
2022-08-09T07:57:01.973Z,28.05
2022-08-09T08:00:08.899Z,28.44
2022-08-09T08:03:14.333Z,28.54
2022-08-09T08:06:21.325Z,28.82
2022-08-09T08:09:35.426Z,29.39
2022-08-09T08:12:47.010Z,29.87
2022-08-09T08:15:49.385Z,30.22
2022-08-09T08:18:52.285Z,30.32
2022-08-09T08:21:54.786Z,30.80
2022-08-09T08:24:58.168Z,31.07
2022-08-09T08:28:00.500Z,31.03
2022-08-09T08:31:13.915Z,31.42
2022-08-09T08:34:20.967Z,31.45
2022-08-09T08:37:40.699Z,31.73
2022-08-09T08:40:44.574Z,32.03
2022-08-09T08:43:52.274Z,32.20
2022-08-09T08:47:02.795Z,32.39
2022-08-09T08:50:08.466Z,32.34
2022-08-09T08:53:15.820Z,32.76
2022-08-09T08:56:28.055Z,33.17
2022-08-09T08:59:46.749Z,33.19
2022-08-09T09:02:53.253Z,33.87
2022-08-09T09:06:00.069Z,34.42
2022-08-09T09:09:21.335Z,34.99
2022-08-09T09:12:34.347Z,35.28
2022-08-09T09:15:38.851Z,35.85
2022-08-09T09:18:48.034Z,36.05
2022-08-09T09:22:05.034Z,36.04
2022-08-09T09:26:01.063Z,36.16
2022-08-09T09:29:02.406Z,35.89
2022-08-09T09:32:06.385Z,35.86
2022-08-09T09:35:18.405Z,36.44
2022-08-09T09:38:36.386Z,36.40
2022-08-09T09:41:48.639Z,36.14
2022-08-09T09:45:03.154Z,36.02
2022-08-09T09:48:06.181Z,36.49
2022-08-09T09:51:11.658Z,36.83
2022-08-09T09:54:48.725Z,37.40
2022-08-09T09:58:17.010Z,37.46
2022-08-09T10:01:30.237Z,37.68
2022-08-09T10:04:41.428Z,37.81
2022-08-09T10:08:10.919Z,38.17
2022-08-09T10:11:58.961Z,38.63
2022-08-09T10:14:48.852Z,38.31
2022-08-09T10:17:56.638Z,38.16
2022-08-09T10:21:09.463Z,38.55
2022-08-09T10:24:16.105Z,38.52
2022-08-09T10:27:34.489Z,37.92
2022-08-09T10:34:32.534Z,38.37
2022-08-09T10:37:30.057Z,38.49
2022-08-09T10:40:50.015Z,38.59
2022-08-09T10:44:00.001Z,38.71
2022-08-09T10:48:20.190Z,38.06
2022-08-09T10:51:13.609Z,37.38
2022-08-09T10:54:22.940Z,37.32
2022-08-09T10:57:37.533Z,37.35
2022-08-09T11:01:10.890Z,37.23
2022-08-09T11:04:27.734Z,36.77
2022-08-09T11:07:58.502Z,36.54
2022-08-09T11:10:59.865Z,36.48
2022-08-09T11:14:32.082Z,37.01
2022-08-09T11:17:34.723Z,36.92
2022-08-09T11:20:49.791Z,36.81
2022-08-09T11:23:59.943Z,35.11
2022-08-09T11:28:03.201Z,34.91
2022-08-09T11:30:57.093Z,34.90
2022-08-09T11:34:03.758Z,35.34
2022-08-09T11:37:18.078Z,36.26
2022-08-09T11:40:23.525Z,35.94
2022-08-09T11:43:32.359Z,35.67
2022-08-09T11:46:55.165Z,35.86
2022-08-09T11:50:53.049Z,36.56
2022-08-09T11:54:01.695Z,37.22
2022-08-09T11:56:48.060Z,37.24
2022-08-09T11:59:52.234Z,36.79
2022-08-09T12:02:57.779Z,36.33
2022-08-09T12:06:09.063Z,35.90
2022-08-09T12:09:19.542Z,35.60
2022-08-09T12:12:29.169Z,34.81
2022-08-09T12:15:49.548Z,34.42
2022-08-09T12:18:53.846Z,33.85
2022-08-09T12:22:01.087Z,33.17
2022-08-09T12:25:14.991Z,32.97
2022-08-09T12:29:13.893Z,32.61
2022-08-09T12:31:58.703Z,32.37
2022-08-09T12:35:12.529Z,32.30
2022-08-09T12:38:37.448Z,32.24
2022-08-09T12:41:41.020Z,32.57
2022-08-09T12:44:46.436Z,33.16
2022-08-09T12:47:55.077Z,33.70
2022-08-09T12:50:59.973Z,33.97
2022-08-09T12:54:07.598Z,33.93
2022-08-09T12:57:10.599Z,33.57
2022-08-09T13:00:25.959Z,33.34
2022-08-09T13:03:53.417Z,32.72
2022-08-09T13:07:09.079Z,32.85
2022-08-09T13:10:12.873Z,32.54
2022-08-09T13:13:17.332Z,32.36
2022-08-09T13:16:19.965Z,32.21
2022-08-09T13:20:08.707Z,31.93
2022-08-09T13:24:07.269Z,31.62
2022-08-09T13:26:36.516Z,31.47
2022-08-09T13:30:03.613Z,31.30
2022-08-09T13:33:24.810Z,31.17
2022-08-09T13:36:47.453Z,30.98
2022-08-09T13:41:39.018Z,30.88
2022-08-09T13:43:15.993Z,30.73
2022-08-09T13:47:16.799Z,30.68
2022-08-09T13:49:57.550Z,30.78
2022-08-09T13:53:00.640Z,30.72
2022-08-09T13:56:04.120Z,30.83
2022-08-09T13:59:07.664Z,31.02
2022-08-09T14:02:10.471Z,31.13
2022-08-09T14:05:56.125Z,31.15
2022-08-09T14:08:35.562Z,31.23
2022-08-09T14:11:46.943Z,31.22
2022-08-09T14:14:53.732Z,31.29
2022-08-09T14:18:19.015Z,31.30
2022-08-09T14:21:24.285Z,31.23
2022-08-09T14:24:32.331Z,31.26
2022-08-09T14:27:37.128Z,31.18
2022-08-09T14:30:58.859Z,31.20
2022-08-09T14:34:04.094Z,31.06
2022-08-09T14:37:11.012Z,31.17
2022-08-09T14:40:13.783Z,31.01
2022-08-09T14:43:18.563Z,31.08
2022-08-09T14:46:54.700Z,31.18
2022-08-09T14:50:01.343Z,31.32
2022-08-09T14:53:11.548Z,31.26
2022-08-09T14:56:14.895Z,31.01
2022-08-09T14:59:17.367Z,30.89
2022-08-09T15:02:23.704Z,30.93
2022-08-09T15:05:26.214Z,30.79
2022-08-09T15:08:30.412Z,30.66
2022-08-09T15:11:33.050Z,30.63
2022-08-09T15:14:38.319Z,30.64
2022-08-09T15:17:42.625Z,30.59
2022-08-09T15:21:56.590Z,30.63
2022-08-09T15:24:16.450Z,30.55
2022-08-09T15:27:22.093Z,30.46
2022-08-09T15:30:57.629Z,30.26
2022-08-09T15:34:18.133Z,30.34
2022-08-09T15:37:38.106Z,30.29
2022-08-09T15:40:50.724Z,30.08
2022-08-09T15:43:53.713Z,29.98
2022-08-09T15:46:57.867Z,30.05
2022-08-09T15:50:04.743Z,29.93
2022-08-09T15:54:02.137Z,29.95
2022-08-09T15:56:30.877Z,29.86
2022-08-09T15:59:36.759Z,29.75
2022-08-09T16:02:40.166Z,29.81
2022-08-09T16:05:53.553Z,29.78
2022-08-09T16:09:00.928Z,29.78
2022-08-09T16:12:06.750Z,29.73
2022-08-09T16:16:04.504Z,29.71
2022-08-09T16:18:37.375Z,29.66
2022-08-09T16:21:51.891Z,29.62
2022-08-09T16:24:56.992Z,29.59
2022-08-09T16:28:02.117Z,29.52
2022-08-09T16:31:16.170Z,29.36
2022-08-09T16:34:18.761Z,29.36
2022-08-09T16:37:54.572Z,29.22
2022-08-09T16:40:48.812Z,29.15
2022-08-09T16:43:51.599Z,28.96
2022-08-09T16:46:55.125Z,28.99
2022-08-09T16:50:28.718Z,28.92
2022-08-09T16:53:34.201Z,28.80
2022-08-09T16:56:37.200Z,28.67
2022-08-09T16:59:57.431Z,28.48
2022-08-09T17:03:00.753Z,28.48
2022-08-09T17:06:28.378Z,28.28
2022-08-09T17:09:45.901Z,28.16
2022-08-09T17:12:49.206Z,27.84
2022-08-09T17:15:59.956Z,27.76
2022-08-09T17:19:03.386Z,27.60
2022-08-09T17:22:08.251Z,27.49
2022-08-09T17:25:12.277Z,27.26
2022-08-09T17:28:15.030Z,27.23
2022-08-09T17:31:20.315Z,26.94
2022-08-09T17:35:07.978Z,26.99
2022-08-09T17:38:02.764Z,26.86
2022-08-09T17:41:10.480Z,26.84
2022-08-09T17:44:36.571Z,26.75
2022-08-09T17:47:49.963Z,26.93
2022-08-09T17:51:08.724Z,26.90
2022-08-09T17:54:25.123Z,26.88
2022-08-09T17:58:03.392Z,26.88
2022-08-09T18:00:55.016Z,26.77
2022-08-09T18:04:01.253Z,26.85
2022-08-09T18:07:07.755Z,26.81
2022-08-09T18:10:11.003Z,26.83
2022-08-09T18:13:38.845Z,26.83
2022-08-09T18:16:36.044Z,26.69
2022-08-09T18:20:56.143Z,26.65
2022-08-09T18:24:09.854Z,26.73
2022-08-09T18:26:37.867Z,26.61
2022-08-09T18:30:38.040Z,26.58
2022-08-09T18:33:04.230Z,26.64
2022-08-09T18:36:25.539Z,26.51
2022-08-09T18:39:32.259Z,26.59
2022-08-09T18:42:35.575Z,26.61
2022-08-09T18:46:47.970Z,26.53
2022-08-09T18:49:02.130Z,26.60
2022-08-09T18:52:05.227Z,26.41
2022-08-09T18:55:13.552Z,26.41
2022-08-09T18:58:31.961Z,26.38
2022-08-09T19:01:45.830Z,26.22
2022-08-09T19:05:14.791Z,26.16
2022-08-09T19:08:18.265Z,26.18
2022-08-09T19:11:26.087Z,26.05
2022-08-09T19:14:43.289Z,25.86
2022-08-09T19:17:56.365Z,25.93
2022-08-09T19:21:01.224Z,25.90
2022-08-09T19:24:37.090Z,25.85
2022-08-09T19:27:30.351Z,25.71
2022-08-09T19:30:32.707Z,25.74
2022-08-09T19:33:36.008Z,25.57
2022-08-09T19:36:38.318Z,25.65
2022-08-09T19:40:03.591Z,25.56
2022-08-09T19:43:16.308Z,25.46
2022-08-09T19:46:35.770Z,25.52
2022-08-09T19:50:49.791Z,25.45
2022-08-09T19:53:16.080Z,25.43
2022-08-09T19:56:28.837Z,25.31
2022-08-09T19:59:57.162Z,25.38
2022-08-09T20:04:17.099Z,25.35
2022-08-09T20:06:23.018Z,25.15
2022-08-09T20:09:44.013Z,25.14
2022-08-09T20:12:49.037Z,25.16
2022-08-09T20:16:37.974Z,25.04
2022-08-09T20:19:48.834Z,24.91
2022-08-09T20:22:39.023Z,24.95
2022-08-09T20:25:51.272Z,24.89
2022-08-09T20:28:54.931Z,24.89
2022-08-09T20:32:29.161Z,24.71
2022-08-09T20:35:21.633Z,24.78
2022-08-09T20:38:33.907Z,24.75
2022-08-09T20:41:46.661Z,24.71
2022-08-09T20:45:00.551Z,24.56
2022-08-09T20:48:13.980Z,24.64
2022-08-09T20:51:24.224Z,24.52
2022-08-09T20:54:26.609Z,24.49
2022-08-09T20:57:32.052Z,24.47
2022-08-09T21:00:35.778Z,24.45
2022-08-09T21:03:39.241Z,24.53
2022-08-09T21:07:00.769Z,24.50
2022-08-09T21:10:16.191Z,24.46
2022-08-09T21:13:18.445Z,24.44
2022-08-09T21:16:21.487Z,24.46
2022-08-09T21:20:16.984Z,24.45
2022-08-09T21:22:55.822Z,24.34
2022-08-09T21:25:59.396Z,24.46
2022-08-09T21:29:02.865Z,24.43
2022-08-09T21:32:18.673Z,24.41
2022-08-09T21:35:22.048Z,24.30
2022-08-09T21:38:30.826Z,24.34
2022-08-09T21:42:04.738Z,24.35
2022-08-09T21:44:57.553Z,24.35
2022-08-09T21:48:00.651Z,24.31
2022-08-09T21:51:03.048Z,24.18
2022-08-09T21:54:06.153Z,24.13
2022-08-09T21:57:25.458Z,24.19
2022-08-09T22:00:34.298Z,24.14
2022-08-09T22:03:36.886Z,24.00
2022-08-09T22:07:03.167Z,24.05
2022-08-09T22:10:08.548Z,23.91
2022-08-09T22:13:11.421Z,23.86
2022-08-09T22:16:14.844Z,23.81
2022-08-09T22:19:59.131Z,23.76
2022-08-09T22:22:40.259Z,23.85
2022-08-09T22:26:08.562Z,23.80
2022-08-09T22:29:09.074Z,23.77
2022-08-09T22:32:29.986Z,23.71
2022-08-09T22:35:59.986Z,23.57
2022-08-09T22:38:58.930Z,23.54
2022-08-09T22:42:04.153Z,23.52
2022-08-09T22:48:15.523Z,23.59
2022-08-09T22:48:50.242Z,23.57
2022-08-09T22:51:57.005Z,23.42
2022-08-09T22:55:00.116Z,23.39
2022-08-09T22:58:02.384Z,23.35
2022-08-09T23:01:07.817Z,23.31
2022-08-09T23:04:10.228Z,23.37
2022-08-09T23:08:27.596Z,23.33
2022-08-09T23:10:54.617Z,23.17
2022-08-09T23:13:57.023Z,23.23
2022-08-09T23:16:59.415Z,23.18
2022-08-09T23:20:07.993Z,22.92
2022-08-09T23:23:10.613Z,23.09
2022-08-09T23:26:13.183Z,23.04
2022-08-09T23:29:15.483Z,22.88
2022-08-09T23:32:18.255Z,22.85
2022-08-09T23:35:20.694Z,22.82
2022-08-09T23:38:23.393Z,22.88
2022-08-09T23:41:28.704Z,22.84
2022-08-09T23:44:32.561Z,22.64
2022-08-09T23:47:34.836Z,22.76
2022-08-09T23:50:37.428Z,22.62
2022-08-09T23:53:39.788Z,22.71
2022-08-09T23:56:54.191Z,22.70
